Time;durP1;ratioP1;P1;durP2;ratioP2;P2;SDS_P1;SDS_P2;PMS_P1;PMS_P2;Temp;Humidity;BMP_temperature;BMP_pressure;BME280_temperature;BME280_humidity;BME280_pressure;Samples;Min_cycle;Max_cycle;Signal;HPM_P1;HPM_P2
2023/06/03 00:01:03;;;;;;;4.22;0.90;;;9.80;1.00;;;;;;5036116;28;20068;-28
2023/06/03 00:03:31;;;;;;;4.50;1.20;;;9.80;1.00;;;;;;5035743;28;20050;-28
2023/06/03 00:06:01;;;;;;;4.03;1.20;;;9.90;1.00;;;;;;5037539;28;20043;-28
2023/06/03 00:08:27;;;;;;;4.53;1.13;;;9.90;1.00;;;;;;5037154;28;20136;-27
2023/06/03 00:10:53;;;;;;;2.78;0.95;;;9.80;99.90;;;;;;5037777;28;20128;-28
2023/06/03 00:13:18;;;;;;;3.83;1.23;;;9.80;99.90;;;;;;5036840;28;20485;-27
2023/06/03 00:15:44;;;;;;;1.63;0.68;;;9.80;99.90;;;;;;5036106;28;20107;-29
2023/06/03 00:18:10;;;;;;;2.92;1.10;;;9.80;99.90;;;;;;5036945;28;20049;-27
2023/06/03 00:20:36;;;;;;;1.08;0.60;;;9.80;99.90;;;;;;5035852;28;20111;-28
2023/06/03 00:23:05;;;;;;;4.05;0.93;;;9.70;99.90;;;;;;5035912;28;20064;-28
2023/06/03 00:25:32;;;;;;;2.17;0.85;;;9.70;47.40;;;;;;5035655;28;20050;-28
2023/06/03 00:27:58;;;;;;;3.35;0.70;;;9.70;56.40;;;;;;5036467;28;20041;-28
2023/06/03 00:30:23;;;;;;;1.55;0.60;;;9.70;14.30;;;;;;5037327;28;20049;-28
2023/06/03 00:32:49;;;;;;;2.05;0.80;;;9.80;1.00;;;;;;5036780;28;20386;-27
2023/06/03 00:35:15;;;;;;;2.40;0.60;;;9.80;1.00;;;;;;5036714;28;20436;-28
2023/06/03 00:37:41;;;;;;;1.90;0.70;;;9.80;1.00;;;;;;5019191;28;20080;-27
2023/06/03 00:40:07;;;;;;;2.67;0.77;;;9.90;1.00;;;;;;5019760;28;20053;-27
2023/06/03 00:42:33;;;;;;;3.22;0.73;;;10.00;1.00;;;;;;5037082;28;20046;-27
2023/06/03 00:44:59;;;;;;;2.80;0.60;;;10.10;1.00;;;;;;5036522;28;20046;-27
2023/06/03 00:47:25;;;;;;;1.45;0.82;;;10.10;1.00;;;;;;5036443;28;20048;-28
2023/06/03 00:49:51;;;;;;;1.60;0.82;;;10.10;99.90;;;;;;5036411;28;20049;-27
2023/06/03 00:52:22;;;;;;;1.30;0.88;;;10.20;99.90;;;;;;5036386;28;20045;-27
2023/06/03 00:54:49;;;;;;;1.25;0.50;;;10.10;99.90;;;;;;5018960;28;20077;-27
2023/06/03 00:57:16;;;;;;;1.50;0.57;;;10.10;99.90;;;;;;5019317;28;20132;-29
2023/06/03 00:59:42;;;;;;;2.28;0.73;;;10.10;99.90;;;;;;5035528;28;20050;-28
2023/06/03 01:02:08;;;;;;;4.15;0.90;;;10.10;94.90;;;;;;5018574;28;20038;-27
2023/06/03 01:04:34;;;;;;;3.97;0.98;;;10.00;99.90;;;;;;5036970;28;20049;-28
2023/06/03 01:07:11;;;;;;;1.85;0.60;;;10.00;99.90;;;;;;5034935;28;20053;-28
2023/06/03 01:09:46;;;;;;;1.75;0.60;;;9.90;39.00;;;;;;5036198;28;20049;-29
2023/06/03 01:12:31;;;;;;;4.60;0.63;;;9.90;1.00;;;;;;5036598;28;20045;-28
2023/06/03 01:15:23;;;;;;;1.25;0.50;;;9.90;1.00;;;;;;5034769;28;20049;-27
2023/06/03 01:17:52;;;;;;;1.15;0.45;;;9.80;1.00;;;;;;5036060;28;20111;-28
2023/06/03 01:20:19;;;;;;;1.45;0.70;;;9.80;1.00;;;;;;5035873;28;20053;-27
2023/06/03 01:22:51;;;;;;;5.45;0.60;;;9.80;1.00;;;;;;5035900;28;20107;-28
2023/06/03 01:25:20;;;;;;;2.72;0.63;;;9.70;1.00;;;;;;5035798;28;20057;-28
2023/06/03 01:27:48;;;;;;;3.72;0.70;;;9.80;1.00;;;;;;5035749;28;20049;-28
2023/06/03 01:30:17;;;;;;;2.25;0.70;;;9.70;1.00;;;;;;5035297;28;20423;-28
2023/06/03 01:32:44;;;;;;;1.63;0.77;;;9.70;1.00;;;;;;5035694;28;20045;-28
2023/06/03 01:35:11;;;;;;;2.28;0.85;;;9.70;1.00;;;;;;5035598;28;20045;-29
2023/06/03 01:37:39;;;;;;;2.83;0.70;;;9.60;1.00;;;;;;5035202;28;20103;-27
2023/06/03 01:40:07;;;;;;;3.50;1.05;;;9.70;1.00;;;;;;5034426;28;20042;-27
2023/06/03 01:42:33;;;;;;;2.72;1.02;;;9.60;1.00;;;;;;5035460;28;20089;-27
2023/06/03 01:45:02;;;;;;;2.22;0.50;;;9.50;1.00;;;;;;5036043;28;20128;-27
2023/06/03 01:47:28;;;;;;;1.90;0.75;;;9.50;1.00;;;;;;5035324;28;20046;-28
2023/06/03 01:49:54;;;;;;;2.42;0.70;;;9.50;1.00;;;;;;5035279;28;20041;-28
2023/06/03 01:52:20;;;;;;;2.90;0.55;;;9.40;1.00;;;;;;5035541;28;20053;-27
2023/06/03 01:54:46;;;;;;;2.22;0.73;;;9.40;1.00;;;;;;5035247;28;20480;-28
2023/06/03 01:57:12;;;;;;;1.92;0.65;;;9.30;1.00;;;;;;5033983;28;20088;-27
2023/06/03 01:59:38;;;;;;;2.83;0.90;;;9.30;1.00;;;;;;5035154;28;20053;-28
2023/06/03 02:02:04;;;;;;;2.78;0.50;;;9.20;1.00;;;;;;5035016;28;20048;-28
2023/06/03 02:04:30;;;;;;;4.32;0.77;;;9.20;6.30;;;;;;5033845;28;20060;-27
2023/06/03 02:06:59;;;;;;;2.47;0.70;;;9.10;40.80;;;;;;5034855;28;20045;-27
2023/06/03 02:09:27;;;;;;;2.63;0.80;;;9.10;53.10;;;;;;5033838;28;20049;-28
2023/06/03 02:11:56;;;;;;;3.65;0.80;;;9.10;83.80;;;;;;5034880;28;20120;-28
2023/06/03 02:14:23;;;;;;;3.05;0.90;;;9.10;99.90;;;;;;5034842;28;20085;-28
2023/06/03 02:16:49;;;;;;;2.78;0.73;;;9.00;99.90;;;;;;5034479;28;20041;-28
2023/06/03 02:19:20;;;;;;;4.05;0.93;;;9.00;99.90;;;;;;5033676;28;20096;-27
2023/06/03 02:21:46;;;;;;;2.20;0.70;;;8.90;99.90;;;;;;5033897;28;20111;-29
2023/06/03 02:24:16;;;;;;;2.13;0.90;;;8.90;99.90;;;;;;5035065;28;20454;-28
2023/06/03 02:26:49;;;;;;;2.45;0.82;;;8.90;99.90;;;;;;5035210;28;20054;-28
2023/06/03 02:29:20;;;;;;;2.20;0.88;;;8.90;99.90;;;;;;5034673;28;20045;-28
2023/06/03 02:31:46;;;;;;;3.20;1.38;;;8.90;99.90;;;;;;5034489;28;20128;-28
2023/06/03 02:34:12;;;;;;;1.77;0.85;;;8.80;99.90;;;;;;5033497;28;20050;-28
2023/06/03 02:36:38;;;;;;;3.92;0.85;;;8.80;99.90;;;;;;5034406;28;20488;-28
2023/06/03 02:39:05;;;;;;;2.60;1.10;;;8.80;99.90;;;;;;5034048;28;20045;-28
2023/06/03 02:41:31;;;;;;;3.40;1.00;;;8.80;99.90;;;;;;5035085;28;20068;-29
2023/06/03 02:43:56;;;;;;;3.85;0.90;;;8.60;99.90;;;;;;5034555;28;20424;-29
2023/06/03 02:46:22;;;;;;;1.33;0.80;;;8.60;99.90;;;;;;5034792;28;20533;-29
2023/06/03 02:48:48;;;;;;;1.92;1.00;;;8.60;1.00;;;;;;5016762;28;20053;-27
2023/06/03 02:51:13;;;;;;;3.22;0.80;;;8.60;1.00;;;;;;5017141;28;20081;-27
2023/06/03 02:53:39;;;;;;;2.05;0.70;;;8.50;1.00;;;;;;5034133;28;20128;-27
2023/06/03 02:56:05;;;;;;;4.10;0.70;;;8.40;1.00;;;;;;5016551;28;20382;-28
2023/06/03 02:58:30;;;;;;;3.65;0.88;;;8.40;1.00;;;;;;5016929;28;20485;-28
2023/06/03 03:00:57;;;;;;;3.92;0.90;;;8.40;1.00;;;;;;5034001;28;20049;-27
2023/06/03 03:03:25;;;;;;;2.25;1.00;;;8.40;1.00;;;;;;5032975;28;20060;-29
2023/06/03 03:05:51;;;;;;;2.08;1.00;;;8.40;1.00;;;;;;5033916;28;20056;-28
2023/06/03 03:08:17;;;;;;;4.72;0.80;;;8.40;1.00;;;;;;5033888;28;20056;-28
2023/06/03 03:10:43;;;;;;;4.05;1.10;;;8.40;1.00;;;;;;5034141;28;20121;-28
2023/06/03 03:13:09;;;;;;;4.25;1.20;;;8.30;1.00;;;;;;5033812;28;20565;-28
2023/06/03 03:15:35;;;;;;;1.92;1.23;;;8.30;17.70;;;;;;5033001;28;20500;-28
2023/06/03 03:18:00;;;;;;;4.45;1.35;;;8.30;38.00;;;;;;5032728;28;20072;-28
2023/06/03 03:20:29;;;;;;;2.75;1.70;;;8.10;95.20;;;;;;5033564;28;20042;-28
2023/06/03 03:22:55;;;;;;;3.25;1.27;;;8.00;99.90;;;;;;5033677;28;20405;-28
2023/06/03 03:25:21;;;;;;;3.08;1.10;;;8.00;99.90;;;;;;5033606;28;20045;-28
2023/06/03 03:27:47;;;;;;;3.30;1.27;;;7.90;99.90;;;;;;5032918;28;20064;-29
2023/06/03 03:30:13;;;;;;;2.03;1.27;;;7.90;99.90;;;;;;5032633;28;20135;-28
2023/06/03 03:32:39;;;;;;;5.50;1.40;;;7.90;99.90;;;;;;5033204;28;20083;-29
2023/06/03 03:35:09;;;;;;;2.42;1.10;;;7.90;99.90;;;;;;5033555;28;20049;-28
2023/06/03 03:37:34;;;;;;;2.85;1.17;;;7.90;99.90;;;;;;5033473;28;20099;-28
2023/06/03 03:40:00;;;;;;;5.28;0.85;;;7.90;99.90;;;;;;5034042;28;20436;-29
2023/06/03 03:42:26;;;;;;;3.65;1.50;;;7.90;99.90;;;;;;5033389;28;20121;-28
2023/06/03 03:44:52;;;;;;;4.47;1.13;;;7.90;99.90;;;;;;5033222;28;20089;-28
2023/06/03 03:47:23;;;;;;;4.80;1.23;;;7.90;99.90;;;;;;5033416;28;20049;-28
2023/06/03 03:49:48;;;;;;;5.07;0.85;;;7.90;99.90;;;;;;5033641;28;20049;-28
2023/06/03 03:52:16;;;;;;;3.17;1.00;;;7.90;99.90;;;;;;5033324;28;20561;-28
2023/06/03 03:54:42;;;;;;;3.05;1.08;;;8.00;99.90;;;;;;5032068;28;20045;-28
2023/06/03 03:57:14;;;;;;;6.50;1.00;;;7.90;99.90;;;;;;5033243;28;20129;-28
2023/06/03 03:59:40;;;;;;;2.95;1.52;;;8.00;99.90;;;;;;5033255;28;20129;-28
2023/06/03 04:02:06;;;;;;;4.03;1.27;;;8.10;99.90;;;;;;5033211;28;20047;-28
2023/06/03 04:04:36;;;;;;;2.72;1.10;;;8.10;99.90;;;;;;5033280;28;20543;-28
2023/06/03 04:07:03;;;;;;;6.43;1.10;;;8.20;99.90;;;;;;5034040;28;20053;-28
2023/06/03 04:09:28;;;;;;;1.98;1.27;;;8.30;99.90;;;;;;5032004;28;20045;-28
2023/06/03 04:11:54;;;;;;;2.25;1.15;;;8.40;99.90;;;;;;5032216;28;20095;-28
2023/06/03 04:14:44;;;;;;;2.63;1.00;;;8.40;99.90;;;;;;5033664;28;20098;-28
2023/06/03 04:17:12;;;;;;;1.55;1.00;;;8.50;99.90;;;;;;5033182;28;20073;-28
2023/06/03 04:19:41;;;;;;;2.40;1.15;;;8.60;99.90;;;;;;5015884;28;20476;-28
2023/06/03 04:22:08;;;;;;;2.83;0.88;;;8.70;99.90;;;;;;5033624;28;20466;-28
2023/06/03 04:24:35;;;;;;;1.92;1.10;;;8.80;99.90;;;;;;5034196;28;20398;-28
2023/06/03 04:27:08;;;;;;;4.10;1.15;;;8.90;99.90;;;;;;5032973;28;20049;-28
2023/06/03 04:29:34;;;;;;;1.52;1.08;;;9.00;99.90;;;;;;5033956;28;20052;-27
2023/06/03 04:32:00;;;;;;;3.25;1.27;;;9.10;99.90;;;;;;5031799;28;20055;-27
2023/06/03 04:34:29;;;;;;;3.58;1.23;;;9.20;99.90;;;;;;5032288;28;20045;-28
2023/06/03 04:36:55;;;;;;;4.28;1.23;;;9.30;99.90;;;;;;5031875;28;20088;-28
2023/06/03 04:39:21;;;;;;;4.15;1.48;;;9.50;99.90;;;;;;5032892;28;20101;-28
2023/06/03 04:41:46;;;;;;;4.43;1.13;;;9.60;99.90;;;;;;5031894;28;20041;-28
2023/06/03 04:44:13;;;;;;;1.73;0.90;;;9.70;99.90;;;;;;5016900;28;20551;-30
2023/06/03 04:46:40;;;;;;;3.38;1.38;;;9.70;99.90;;;;;;5035767;28;20469;-28
2023/06/03 04:49:08;;;;;;;3.45;0.88;;;9.90;99.90;;;;;;5036415;28;20049;-27
2023/06/03 04:51:34;;;;;;;3.15;1.20;;;10.00;99.90;;;;;;5035122;28;20049;-27
2023/06/03 04:54:00;;;;;;;4.32;1.20;;;10.10;61.50;;;;;;5036140;28;20049;-28
2023/06/03 04:56:29;;;;;;;3.45;1.13;;;10.20;57.20;;;;;;5036248;28;20056;-29
2023/06/03 04:59:00;;;;;;;1.38;0.90;;;10.30;28.90;;;;;;5036746;28;20046;-29
2023/06/03 05:01:27;;;;;;;2.88;1.23;;;10.40;1.00;;;;;;5036200;28;20081;-28
2023/06/03 05:03:53;;;;;;;3.95;1.02;;;10.50;1.00;;;;;;5036379;28;20382;-29
2023/06/03 05:06:19;;;;;;;3.80;1.05;;;10.70;1.00;;;;;;5036089;28;20129;-28
2023/06/03 05:08:47;;;;;;;4.75;0.90;;;10.80;1.00;;;;;;5036892;28;20442;-28
2023/06/03 05:11:16;;;;;;;3.35;1.13;;;10.90;1.00;;;;;;5036025;28;20049;-28
2023/06/03 05:13:42;;;;;;;4.75;1.45;;;11.40;1.00;;;;;;5035965;28;20041;-28
2023/06/03 05:16:08;;;;;;;4.75;1.27;;;11.90;99.90;;;;;;5035911;28;20147;-28
2023/06/03 05:18:35;;;;;;;2.90;0.90;;;12.60;31.20;;;;;;5034858;28;20054;-28
2023/06/03 05:21:02;;;;;;;2.92;1.00;;;13.30;1.00;;;;;;5035922;28;20049;-28
2023/06/03 05:23:28;;;;;;;3.60;1.15;;;14.00;99.90;;;;;;5036104;28;20061;-28
2023/06/03 05:25:53;;;;;;;5.78;1.20;;;14.70;1.00;;;;;;5035742;28;20064;-29
2023/06/03 05:28:19;;;;;;;1.20;0.73;;;15.20;99.90;;;;;;5035712;28;20076;-28
2023/06/03 05:30:45;;;;;;;2.97;0.90;;;15.60;1.00;;;;;;5036235;28;20046;-28
2023/06/03 05:33:27;;;;;;;3.97;1.00;;;16.10;99.90;;;;;;5018192;28;20037;-28
2023/06/03 05:35:52;;;;;;;2.90;1.20;;;16.50;1.00;;;;;;5035914;28;20049;-28
2023/06/03 05:38:19;;;;;;;2.38;1.08;;;17.00;1.00;;;;;;5035602;28;20045;-29
2023/06/03 05:40:45;;;;;;;2.90;0.70;;;17.30;99.90;;;;;;5034531;28;20046;-29
2023/06/03 05:43:10;;;;;;;4.75;1.33;;;17.50;99.90;;;;;;5035366;28;20044;-29
2023/06/03 05:45:36;;;;;;;3.28;0.82;;;17.60;99.90;;;;;;5035421;28;20465;-29
2023/06/03 05:48:02;;;;;;;3.20;1.38;;;17.80;99.90;;;;;;5034423;28;20042;-29
2023/06/03 05:50:27;;;;;;;3.22;1.00;;;17.80;38.10;;;;;;5035299;28;20041;-29
2023/06/03 05:52:55;;;;;;;2.45;0.95;;;17.60;36.20;;;;;;5036092;28;20041;-29
2023/06/03 05:55:22;;;;;;;1.95;0.93;;;17.90;40.50;;;;;;5034851;28;20478;-29
2023/06/03 05:57:48;;;;;;;4.18;1.10;;;18.00;1.00;;;;;;5035775;28;20085;-29
2023/06/03 06:00:14;;;;;;;1.38;0.80;;;18.40;1.00;;;;;;5034143;28;20077;-27
2023/06/03 06:02:40;;;;;;;3.10;1.00;;;18.60;1.00;;;;;;5034978;28;20502;-29
2023/06/03 06:05:06;;;;;;;2.25;0.70;;;18.70;99.90;;;;;;5034372;28;20088;-28
2023/06/03 06:07:32;;;;;;;2.30;0.63;;;18.90;99.90;;;;;;5034975;28;20042;-28
2023/06/03 06:09:58;;;;;;;4.43;1.00;;;19.20;99.90;;;;;;5033990;28;20052;-29
2023/06/03 06:12:24;;;;;;;2.13;0.60;;;19.40;99.90;;;;;;5033685;28;20045;-29
2023/06/03 06:14:49;;;;;;;3.85;1.30;;;19.60;99.90;;;;;;5034832;28;20050;-30
2023/06/03 06:17:16;;;;;;;3.30;1.15;;;19.70;99.90;;;;;;5034585;28;20042;-30
2023/06/03 06:19:42;;;;;;;1.75;0.52;;;20.00;99.90;;;;;;5034640;28;20064;-28
2023/06/03 06:22:08;;;;;;;3.67;0.88;;;20.30;99.90;;;;;;5034607;28;20045;-31
2023/06/03 06:24:36;;;;;;;1.58;0.80;;;20.50;99.90;;;;;;5035343;28;20063;-29
2023/06/03 06:27:01;;;;;;;2.92;0.88;;;20.70;99.90;;;;;;5033485;28;20136;-29
2023/06/03 06:29:27;;;;;;;1.50;0.60;;;20.60;99.90;;;;;;5034549;28;20081;-30
2023/06/03 06:31:53;;;;;;;1.52;0.57;;;20.80;99.90;;;;;;5034474;28;20080;-29
2023/06/03 06:34:19;;;;;;;1.88;0.55;;;21.30;99.90;;;;;;5034160;28;20041;-29
2023/06/03 06:36:49;;;;;;;3.55;1.05;;;21.40;99.90;;;;;;5034652;28;20055;-28
2023/06/03 06:39:33;;;;;;;3.92;0.50;;;21.20;99.90;;;;;;5033105;28;20133;-28
2023/06/03 06:42:33;;;;;;;1.98;0.60;;;21.70;99.00;;;;;;5034770;28;20457;-30
2023/06/03 06:45:15;;;;;;;2.45;0.55;;;22.00;99.90;;;;;;5028145;28;20107;-29
2023/06/03 06:47:41;;;;;;;1.27;0.50;;;22.60;93.00;;;;;;5034532;28;20041;-29
2023/06/03 06:50:32;;;;;;;4.05;0.77;;;22.50;36.20;;;;;;5032964;28;20081;-30
2023/06/03 06:52:59;;;;;;;4.53;0.75;;;22.80;20.10;;;;;;5034176;28;20083;-29
2023/06/03 06:55:36;;;;;;;1.98;0.70;;;23.20;33.40;;;;;;5033826;28;20563;-30
2023/06/03 06:58:02;;;;;;;2.80;0.70;;;23.30;23.30;;;;;;5032979;28;20128;-29
2023/06/03 07:00:28;;;;;;;1.48;0.50;;;23.40;6.60;;;;;;5034085;28;20132;-29
2023/06/03 07:02:55;;;;;;;1.83;0.60;;;23.50;1.00;;;;;;5033967;28;20499;-31
2023/06/03 07:05:20;;;;;;;0.95;0.40;;;23.60;1.00;;;;;;5033555;28;20451;-30
2023/06/03 07:07:48;;;;;;;1.60;0.70;;;23.60;1.00;;;;;;5033207;28;20128;-29
2023/06/03 07:10:20;;;;;;;2.45;1.00;;;23.10;1.00;;;;;;5032596;28;20041;-30
2023/06/03 07:12:46;;;;;;;1.63;0.50;;;22.60;1.00;;;;;;5033893;28;20120;-30
2023/06/03 07:15:12;;;;;;;1.88;0.55;;;21.60;1.00;;;;;;5034370;28;20104;-30
2023/06/03 07:17:40;;;;;;;2.65;0.60;;;20.60;1.00;;;;;;5034043;28;20049;-29
2023/06/03 07:20:06;;;;;;;1.65;0.80;;;19.70;1.00;;;;;;5033625;28;20053;-28
2023/06/03 07:22:33;;;;;;;2.28;0.60;;;18.90;1.00;;;;;;5033451;28;20532;-29
2023/06/03 07:24:59;;;;;;;2.92;0.50;;;18.30;1.00;;;;;;5034229;28;20080;-30
2023/06/03 07:27:28;;;;;;;1.38;0.45;;;17.90;1.00;;;;;;5033659;28;20160;-30
2023/06/03 07:29:57;;;;;;;2.03;0.40;;;17.50;1.00;;;;;;5032458;28;20057;-29
2023/06/03 07:32:26;;;;;;;3.08;0.50;;;17.30;1.00;;;;;;5034379;28;20045;-30
2023/06/03 07:34:52;;;;;;;1.75;0.50;;;17.10;1.00;;;;;;5032900;28;20378;-29
2023/06/03 07:37:17;;;;;;;3.72;0.40;;;17.00;1.00;;;;;;5033562;28;20081;-29
2023/06/03 07:39:43;;;;;;;1.05;0.50;;;17.00;1.00;;;;;;5034262;28;20483;-29
2023/06/03 07:42:20;;;;;;;2.28;0.63;;;17.00;1.00;;;;;;5033309;28;20042;-30
2023/06/03 07:44:48;;;;;;;1.98;0.50;;;17.20;1.00;;;;;;5034042;28;20503;-30
2023/06/03 07:47:16;;;;;;;1.40;0.50;;;17.70;1.00;;;;;;5032297;28;20049;-29
2023/06/03 07:49:47;;;;;;;4.10;0.70;;;18.60;1.00;;;;;;5033444;28;20401;-29
2023/06/03 07:52:17;;;;;;;3.75;0.65;;;19.70;1.00;;;;;;5033417;28;20045;-29
2023/06/03 07:54:43;;;;;;;3.17;0.50;;;20.80;1.00;;;;;;5033959;28;20056;-29
2023/06/03 07:57:10;;;;;;;2.60;0.80;;;22.00;1.00;;;;;;5033336;28;20045;-29
2023/06/03 07:59:36;;;;;;;2.67;0.40;;;22.70;1.00;;;;;;5033338;28;20057;-29
2023/06/03 08:02:02;;;;;;;1.98;0.70;;;23.30;1.00;;;;;;5033243;28;20044;-29
2023/06/03 08:04:35;;;;;;;2.67;0.60;;;23.70;1.00;;;;;;5033282;28;20050;-29
2023/06/03 08:07:02;;;;;;;;;;;24.00;1.00;;;;;;5034560;28;20088;-28
2023/06/03 08:09:35;;;;;;;1.58;0.50;;;23.90;1.00;;;;;;5034092;28;19925;-29
2023/06/03 08:12:04;;;;;;;1.55;0.60;;;24.20;1.00;;;;;;5034033;28;20376;-29
2023/06/03 08:14:32;;;;;;;1.95;0.40;;;24.50;2.30;;;;;;5033218;28;20041;-28
2023/06/03 08:17:05;;;;;;;3.25;0.80;;;24.80;8.90;;;;;;5031957;28;20046;-29
2023/06/03 08:19:33;;;;;;;2.95;0.70;;;24.80;1.00;;;;;;5035877;28;20076;-29
2023/06/03 08:21:59;;;;;;;3.30;0.57;;;25.00;2.10;;;;;;5003145;28;20053;-27
2023/06/03 08:24:25;;;;;;;1.77;0.70;;;25.00;15.10;;;;;;5035540;28;20066;-29
2023/06/03 08:26:50;;;;;;;1.58;0.45;;;25.20;22.00;;;;;;5035770;28;20041;-30
2023/06/03 08:29:16;;;;;;;1.52;0.65;;;25.00;10.60;;;;;;5035879;28;20587;-29
2023/06/03 08:31:42;;;;;;;1.23;0.50;;;24.80;23.30;;;;;;5035318;28;20132;-29
2023/06/03 08:34:08;;;;;;;1.60;0.43;;;24.60;37.30;;;;;;5036799;28;20079;-29
2023/06/03 08:36:36;;;;;;;1.42;0.70;;;25.10;56.90;;;;;;5036368;28;20041;-30
2023/06/03 08:39:02;;;;;;;4.25;0.70;;;25.30;96.00;;;;;;5036588;28;20046;-29
2023/06/03 08:41:38;;;;;;;1.58;0.52;;;25.40;92.30;;;;;;5035618;28;20171;-30
2023/06/03 08:44:16;;;;;;;1.08;0.40;;;25.60;99.90;;;;;;5037443;28;20076;-29
2023/06/03 08:47:12;;;;;;;1.33;0.50;;;25.50;95.10;;;;;;5035605;28;20060;-30
2023/06/03 08:49:52;;;;;;;3.40;0.47;;;25.10;81.90;;;;;;5036026;28;20060;-29
2023/06/03 08:52:20;;;;;;;2.25;0.60;;;25.10;90.70;;;;;;5036514;28;20172;-30
2023/06/03 08:54:47;;;;;;;1.48;0.75;;;25.20;98.40;;;;;;5035298;28;20046;-30
2023/06/03 08:57:19;;;;;;;1.80;0.50;;;25.40;99.90;;;;;;5035760;28;20091;-29
2023/06/03 08:59:52;;;;;;;2.17;0.70;;;25.40;93.70;;;;;;5035809;28;20342;-29
2023/06/03 09:02:18;;;;;;;1.52;0.40;;;25.20;92.30;;;;;;5036203;28;20080;-28
2023/06/03 09:04:47;;;;;;;1.80;0.50;;;25.10;95.30;;;;;;5036225;28;20081;-29
2023/06/03 09:07:14;;;;;;;2.08;0.65;;;25.20;96.00;;;;;;5035153;28;20065;-28
2023/06/03 09:09:41;;;;;;;1.10;0.45;;;25.30;96.00;;;;;;5035409;28;20051;-29
2023/06/03 09:12:08;;;;;;;1.08;0.40;;;25.40;99.90;;;;;;5035851;28;20057;-29
2023/06/03 09:14:36;;;;;;;0.88;0.40;;;25.20;90.10;;;;;;5034805;28;20052;-28
2023/06/03 09:17:02;;;;;;;1.35;0.73;;;25.00;92.60;;;;;;5036009;28;20041;-29
2023/06/03 09:19:29;;;;;;;7.18;0.60;;;25.30;96.70;;;;;;5035773;28;20049;-28
2023/06/03 09:21:58;;;;;;;1.15;0.63;;;25.70;99.90;;;;;;5036618;28;20049;-28
2023/06/03 09:24:24;;;;;;;1.27;0.47;;;25.60;99.90;;;;;;5036039;28;20054;-29
2023/06/03 09:26:50;;;;;;;0.73;0.50;;;25.60;99.90;;;;;;5036202;28;20096;-30
2023/06/03 09:29:17;;;;;;;2.72;0.30;;;25.40;99.90;;;;;;5035361;28;20099;-29
2023/06/03 09:31:43;;;;;;;0.80;0.35;;;25.50;91.70;;;;;;5035313;28;20416;-28
2023/06/03 09:34:09;;;;;;;2.58;0.40;;;25.50;93.50;;;;;;5036412;28;20096;-29
2023/06/03 09:36:48;;;;;;;0.75;0.50;;;25.90;99.90;;;;;;5035337;28;20053;-29
2023/06/03 09:39:17;;;;;;;1.60;0.50;;;26.20;99.90;;;;;;5035514;28;20041;-30
2023/06/03 09:41:44;;;;;;;2.78;0.80;;;26.30;99.90;;;;;;5035309;28;20037;-30
2023/06/03 09:44:11;;;;;;;4.10;0.40;;;26.30;99.90;;;;;;5035384;28;20064;-29
2023/06/03 09:46:38;;;;;;;4.20;0.43;;;26.30;99.90;;;;;;5034580;28;20532;-30
2023/06/03 09:49:14;;;;;;;1.85;0.60;;;26.20;99.90;;;;;;5034854;28;20390;-29
2023/06/03 09:51:47;;;;;;;0.95;0.30;;;26.40;99.90;;;;;;5034950;28;20564;-29
2023/06/03 09:54:25;;;;;;;4.47;0.70;;;26.40;99.90;;;;;;5034621;28;20049;-29
2023/06/03 09:56:51;;;;;;;1.10;0.47;;;26.60;99.90;;;;;;5001556;28;20053;-29
2023/06/03 09:59:25;;;;;;;1.23;0.30;;;26.20;99.90;;;;;;5033875;28;20099;-29
2023/06/03 10:01:54;;;;;;;5.15;0.63;;;26.00;99.90;;;;;;5034760;28;20047;-29
2023/06/03 10:04:42;;;;;;;3.17;0.52;;;25.90;99.90;;;;;;5034847;28;20401;-29
2023/06/03 10:07:08;;;;;;;2.00;0.50;;;25.60;99.90;;;;;;5032975;28;20476;-30
2023/06/03 10:09:34;;;;;;;2.30;0.43;;;25.90;99.90;;;;;;5033664;28;20049;-30
2023/06/03 10:12:00;;;;;;;0.73;0.43;;;25.90;99.90;;;;;;5033759;28;20144;-30
2023/06/03 10:14:26;;;;;;;2.38;0.50;;;26.00;99.90;;;;;;5034930;28;20072;-30
2023/06/03 10:17:09;;;;;;;1.25;0.60;;;25.90;99.90;;;;;;5033445;28;20409;-29
2023/06/03 10:19:37;;;;;;;1.70;0.60;;;26.10;99.90;;;;;;5034021;28;20064;-29
2023/06/03 10:22:08;;;;;;;3.00;0.70;;;26.20;99.90;;;;;;5033481;28;20049;-30
2023/06/03 10:24:37;;;;;;;1.25;0.50;;;26.40;99.90;;;;;;5035075;28;20153;-30
2023/06/03 10:27:03;;;;;;;1.73;0.52;;;26.40;99.90;;;;;;5035255;28;20077;-31
2023/06/03 10:29:32;;;;;;;0.98;0.40;;;26.30;99.90;;;;;;5034495;28;20095;-31
2023/06/03 10:32:00;;;;;;;0.80;0.40;;;26.30;99.90;;;;;;5034085;28;20497;-31
2023/06/03 10:34:29;;;;;;;2.03;0.50;;;26.20;99.90;;;;;;5033100;28;20057;-30
2023/06/03 10:37:01;;;;;;;2.17;0.50;;;26.30;99.90;;;;;;5034054;28;20524;-29
2023/06/03 10:39:29;;;;;;;2.43;0.50;;;26.40;99.90;;;;;;5033154;28;20052;-30
2023/06/03 10:42:00;;;;;;;0.95;0.52;;;26.20;99.90;;;;;;5033795;28;20298;-30
2023/06/03 10:44:26;;;;;;;2.92;0.45;;;26.20;99.90;;;;;;5034196;28;20037;-30
2023/06/03 10:47:22;;;;;;;1.95;0.70;;;26.20;99.90;;;;;;5034192;28;20045;-29
2023/06/03 10:49:53;;;;;;;1.33;0.45;;;26.10;99.90;;;;;;5033966;28;20496;-30
2023/06/03 10:52:49;;;;;;;1.42;0.60;;;26.20;99.90;;;;;;5034921;28;20049;-29
2023/06/03 10:55:42;;;;;;;1.00;0.43;;;26.50;99.90;;;;;;5034142;28;20110;-30
2023/06/03 10:58:25;;;;;;;2.80;0.70;;;26.40;99.90;;;;;;5032488;28;20103;-30
2023/06/03 11:00:55;;;;;;;3.55;0.60;;;26.50;99.90;;;;;;5033050;28;20133;-31
2023/06/03 11:03:22;;;;;;;3.08;0.63;;;26.20;99.90;;;;;;5034689;28;20041;-29
2023/06/03 11:05:52;;;;;;;1.73;0.80;;;26.50;99.90;;;;;;5032857;28;20041;-31
2023/06/03 11:08:57;;;;;;;1.30;0.50;;;26.50;99.90;;;;;;5032850;28;20053;-30
2023/06/03 11:11:41;;;;;;;1.48;0.50;;;27.10;99.90;;;;;;5033792;28;20056;-30
2023/06/03 11:14:25;;;;;;;3.90;0.57;;;27.10;99.90;;;;;;5033857;28;20052;-30
2023/06/03 11:17:02;;;;;;;1.80;0.50;;;27.30;99.90;;;;;;5032727;28;20523;-31
2023/06/03 11:19:31;;;;;;;2.80;0.93;;;27.40;99.90;;;;;;5033910;28;20046;-30
2023/06/03 11:22:29;;;;;;;2.90;0.55;;;27.60;99.90;;;;;;5016213;28;20060;-30
2023/06/03 11:25:03;;;;;;;3.38;0.50;;;27.50;99.90;;;;;;5031755;28;20404;-31
2023/06/03 11:27:30;;;;;;;1.15;0.50;;;27.40;99.90;;;;;;5032931;28;20045;-31
2023/06/03 11:29:59;;;;;;;1.65;0.70;;;27.40;99.90;;;;;;5033568;28;20069;-30
2023/06/03 11:32:35;;;;;;;1.20;0.40;;;27.30;99.90;;;;;;5033516;28;20064;-31
2023/06/03 11:35:04;;;;;;;2.05;0.70;;;27.30;99.90;;;;;;5032303;28;20048;-29
2023/06/03 11:37:48;;;;;;;2.15;1.10;;;27.20;99.90;;;;;;5032325;28;20049;-30
2023/06/03 11:40:17;;;;;;;5.10;0.50;;;27.10;99.90;;;;;;5033061;28;20053;-30
2023/06/03 11:42:49;;;;;;;2.70;0.52;;;27.30;99.90;;;;;;5032914;28;20042;-30
2023/06/03 11:45:28;;;;;;;1.63;0.68;;;27.80;99.90;;;;;;5033512;28;20128;-30
2023/06/03 11:47:59;;;;;;;1.77;0.60;;;27.50;99.90;;;;;;5015738;28;20455;-30
2023/06/03 11:50:54;;;;;;;1.38;0.50;;;27.30;99.90;;;;;;5015584;28;20485;-30
2023/06/03 11:53:38;;;;;;;2.30;0.43;;;27.40;99.90;;;;;;5035171;28;20049;-30
2023/06/03 11:56:12;;;;;;;3.53;1.35;;;27.70;99.90;;;;;;5036494;28;20481;-30
2023/06/03 11:58:42;;;;;;;2.55;0.50;;;27.70;99.90;;;;;;5036430;28;20109;-31
2023/06/03 12:01:19;;;;;;;2.33;0.63;;;27.80;99.90;;;;;;5037543;28;20056;-30
2023/06/03 12:04:01;;;;;;;1.77;0.57;;;28.10;99.90;;;;;;5036701;28;20057;-31
2023/06/03 12:06:37;;;;;;;2.08;0.60;;;28.00;99.90;;;;;;5037746;28;20057;-31
2023/06/03 12:09:03;;;;;;;2.00;0.88;;;27.40;99.90;;;;;;5036199;28;20103;-30
2023/06/03 12:11:37;;;;;;;2.15;0.50;;;27.40;99.90;;;;;;5035898;28;20080;-30
2023/06/03 12:14:02;;;;;;;4.78;0.50;;;27.70;99.90;;;;;;5037048;28;20482;-30
2023/06/03 12:16:33;;;;;;;1.25;0.60;;;27.80;99.90;;;;;;5036976;28;20050;-30
2023/06/03 12:19:01;;;;;;;1.08;0.43;;;28.00;99.90;;;;;;5035734;28;20054;-31
2023/06/03 12:21:27;;;;;;;1.40;0.63;;;27.70;99.90;;;;;;5036967;28;20183;-29
2023/06/03 12:23:53;;;;;;;3.17;0.60;;;27.40;99.90;;;;;;5035241;28;20096;-30
2023/06/03 12:26:19;;;;;;;1.25;0.40;;;27.60;99.90;;;;;;5035362;28;20537;-30
2023/06/03 12:28:46;;;;;;;1.27;0.50;;;27.40;99.90;;;;;;5037031;28;20083;-30
2023/06/03 12:31:14;;;;;;;1.55;0.60;;;27.40;99.90;;;;;;5037614;28;20434;-30
2023/06/03 12:33:41;;;;;;;1.38;0.60;;;27.40;99.90;;;;;;5035964;28;20100;-31
2023/06/03 12:36:07;;;;;;;0.77;0.40;;;27.00;99.90;;;;;;5036797;28;20041;-30
2023/06/03 12:38:33;;;;;;;1.38;0.60;;;26.80;99.90;;;;;;5036710;28;20064;-30
2023/06/03 12:41:08;;;;;;;1.02;0.63;;;26.40;99.90;;;;;;5035628;28;20049;-31
2023/06/03 12:43:34;;;;;;;1.95;0.63;;;26.30;99.90;;;;;;5019762;28;20103;-30
2023/06/03 12:46:19;;;;;;;2.88;0.60;;;26.20;99.90;;;;;;5036499;28;20527;-30
2023/06/03 12:48:45;;;;;;;2.63;0.52;;;26.70;99.90;;;;;;5037281;28;20072;-30
2023/06/03 12:51:45;;;;;;;1.35;0.55;;;26.80;99.90;;;;;;5035470;28;20473;-30
2023/06/03 12:54:11;;;;;;;4.15;0.75;;;26.80;99.90;;;;;;5032092;28;20065;-29
2023/06/03 12:56:37;;;;;;;2.30;0.70;;;26.90;99.90;;;;;;5035266;28;20060;-30
2023/06/03 12:59:03;;;;;;;2.55;0.95;;;26.80;99.90;;;;;;5036275;28;20053;-30
2023/06/03 13:01:29;;;;;;;2.53;1.10;;;26.40;99.90;;;;;;5036176;28;20045;-30
2023/06/03 13:03:55;;;;;;;6.72;1.63;;;26.00;99.90;;;;;;5036108;28;20152;-30